createdAt,value
2018-07-19T00:01:04.380Z,19.70
2018-07-19T00:03:32.593Z,19.60
2018-07-19T00:06:00.797Z,19.60
2018-07-19T00:08:29.004Z,19.60
2018-07-19T00:10:57.213Z,19.60
2018-07-19T00:13:25.457Z,19.50
2018-07-19T00:15:53.697Z,19.30
2018-07-19T00:18:25.179Z,19.20
2018-07-19T00:20:54.297Z,19.10
2018-07-19T00:23:22.837Z,19.00
2018-07-19T00:25:51.246Z,18.90
2018-07-19T00:28:19.465Z,19.00
2018-07-19T00:30:47.682Z,19.00
2018-07-19T00:33:15.957Z,19.00
2018-07-19T00:35:44.273Z,19.00
2018-07-19T00:38:12.629Z,18.90
2018-07-19T00:40:40.841Z,18.90
2018-07-19T00:43:09.142Z,18.90
2018-07-19T00:45:37.337Z,18.90
2018-07-19T00:48:05.569Z,18.90
2018-07-19T00:50:33.850Z,18.90
2018-07-19T00:53:02.506Z,19.00
2018-07-19T00:55:30.697Z,19.00
2018-07-19T00:57:59.013Z,18.90
2018-07-19T01:00:27.285Z,18.80
2018-07-19T01:02:55.481Z,18.80
2018-07-19T01:05:23.710Z,18.80
2018-07-19T01:07:51.933Z,18.70
2018-07-19T01:10:20.113Z,18.70
2018-07-19T01:12:48.322Z,18.60
2018-07-19T01:15:16.533Z,18.60
2018-07-19T01:17:44.765Z,18.50
2018-07-19T01:20:13.001Z,18.50
2018-07-19T01:22:41.222Z,18.40
2018-07-19T01:25:09.429Z,18.20
2018-07-19T01:27:37.622Z,18.20
2018-07-19T01:30:06.065Z,18.00
2018-07-19T01:32:34.410Z,17.80
2018-07-19T01:35:02.628Z,17.70
2018-07-19T01:37:30.941Z,17.50
2018-07-19T01:39:59.138Z,17.30
2018-07-19T01:42:34.803Z,17.20
2018-07-19T01:45:03.014Z,17.10
2018-07-19T01:47:31.194Z,17.20
2018-07-19T01:49:59.378Z,17.10
2018-07-19T01:52:27.610Z,17.10
2018-07-19T01:54:55.790Z,17.10
2018-07-19T01:59:51.945Z,17.10
2018-07-19T02:02:20.343Z,17.00
2018-07-19T02:04:48.550Z,17.10
2018-07-19T02:07:16.738Z,17.20
2018-07-19T02:09:44.950Z,17.20
2018-07-19T02:12:13.174Z,17.30
2018-07-19T02:14:41.364Z,17.30
2018-07-19T02:17:09.538Z,17.30
2018-07-19T02:19:37.732Z,17.20
2018-07-19T02:22:05.928Z,17.20
2018-07-19T02:24:34.132Z,17.30
2018-07-19T02:27:02.395Z,17.30
2018-07-19T02:29:30.595Z,17.30
2018-07-19T02:31:58.780Z,17.30
2018-07-19T02:34:26.986Z,17.20
2018-07-19T02:36:55.175Z,17.10
2018-07-19T02:39:23.367Z,17.00
2018-07-19T02:41:51.595Z,16.90
2018-07-19T02:44:19.811Z,16.80
2018-07-19T02:46:47.990Z,16.70
2018-07-19T02:49:16.168Z,16.60
2018-07-19T02:51:44.427Z,16.70
2018-07-19T02:54:12.869Z,16.70
2018-07-19T02:56:41.111Z,16.60
2018-07-19T02:59:09.303Z,16.60
2018-07-19T03:01:37.495Z,16.70
2018-07-19T03:04:05.663Z,16.70
2018-07-19T03:06:33.913Z,16.70
2018-07-19T03:09:02.037Z,16.80
2018-07-19T03:11:30.232Z,16.80
2018-07-19T03:13:58.431Z,16.90
2018-07-19T03:16:26.640Z,16.90
2018-07-19T03:18:54.895Z,16.90
2018-07-19T03:21:23.076Z,16.80
2018-07-19T03:23:51.284Z,16.80
2018-07-19T03:26:19.492Z,16.70
2018-07-19T03:28:47.691Z,16.70
2018-07-19T03:31:15.881Z,16.60
2018-07-19T03:33:44.179Z,16.60
2018-07-19T03:36:12.372Z,16.60
2018-07-19T03:38:40.595Z,16.60
2018-07-19T03:41:08.816Z,16.50
2018-07-19T03:43:37.044Z,16.50
2018-07-19T03:46:05.348Z,16.40
2018-07-19T03:48:33.569Z,16.40
2018-07-19T03:51:01.772Z,16.30
2018-07-19T03:53:29.999Z,16.30
2018-07-19T03:55:58.296Z,16.30
2018-07-19T03:58:26.488Z,16.30
2018-07-19T04:00:54.769Z,16.20
2018-07-19T04:03:22.968Z,16.20
2018-07-19T04:05:51.177Z,16.20
2018-07-19T04:08:19.385Z,16.20
2018-07-19T04:10:47.597Z,16.20
2018-07-19T04:13:15.817Z,16.20
2018-07-19T04:15:44.032Z,16.30
2018-07-19T04:18:12.301Z,16.30
2018-07-19T04:20:40.488Z,16.30
2018-07-19T04:23:08.661Z,16.40
2018-07-19T04:25:36.849Z,16.40
2018-07-19T04:28:05.038Z,16.40
2018-07-19T04:30:33.280Z,16.40
2018-07-19T04:33:01.500Z,16.30
2018-07-19T04:35:29.802Z,16.20
2018-07-19T04:37:57.974Z,16.10
2018-07-19T04:40:26.218Z,16.10
2018-07-19T04:42:54.447Z,16.10
2018-07-19T04:45:22.658Z,16.10
2018-07-19T04:47:50.911Z,16.10
2018-07-19T04:50:19.098Z,16.20
2018-07-19T04:52:47.455Z,16.20
2018-07-19T04:55:15.734Z,16.20
2018-07-19T04:57:43.946Z,16.30
2018-07-19T05:00:12.215Z,16.30
2018-07-19T05:02:40.619Z,16.40
2018-07-19T05:05:08.863Z,16.50
2018-07-19T05:07:37.143Z,16.70
2018-07-19T05:10:05.430Z,16.90
2018-07-19T05:12:33.647Z,17.10
2018-07-19T05:15:01.867Z,17.30
2018-07-19T05:17:30.115Z,17.40
2018-07-19T05:19:58.331Z,17.50
2018-07-19T05:22:26.559Z,17.50
2018-07-19T05:24:55.095Z,17.60
2018-07-19T05:27:23.335Z,17.70
2018-07-19T05:29:51.631Z,17.90
2018-07-19T05:32:19.859Z,18.00
2018-07-19T05:34:48.112Z,18.00
2018-07-19T05:37:16.335Z,18.10
2018-07-19T05:39:44.564Z,18.00
2018-07-19T05:42:12.893Z,17.90
2018-07-19T05:44:41.072Z,18.00
2018-07-19T05:47:09.360Z,18.10
2018-07-19T05:49:37.552Z,18.10
2018-07-19T05:52:05.792Z,18.20
2018-07-19T05:54:34.004Z,18.30
2018-07-19T05:57:02.207Z,18.30
2018-07-19T05:59:30.456Z,18.50
2018-07-19T06:01:58.720Z,18.70
2018-07-19T06:04:26.991Z,18.90
2018-07-19T06:06:55.457Z,18.90
2018-07-19T06:09:23.756Z,19.10
2018-07-19T06:11:52.005Z,19.20
2018-07-19T06:14:20.276Z,19.30
2018-07-19T06:16:48.524Z,19.50
2018-07-19T06:19:16.949Z,19.60
2018-07-19T06:21:45.224Z,19.90
2018-07-19T06:24:13.459Z,20.20
2018-07-19T06:26:41.665Z,20.30
2018-07-19T06:29:09.856Z,20.40
2018-07-19T06:31:38.089Z,20.60
2018-07-19T06:36:34.297Z,20.70
2018-07-19T06:39:02.817Z,20.70
2018-07-19T06:41:31.113Z,20.60
2018-07-19T06:43:59.396Z,20.70
2018-07-19T06:46:27.707Z,20.90
2018-07-19T06:48:55.981Z,20.90
2018-07-19T06:51:24.205Z,21.10
2018-07-19T06:53:52.436Z,21.10
2018-07-19T06:56:20.712Z,21.30
2018-07-19T06:58:48.960Z,21.50
2018-07-19T07:01:17.265Z,21.40
2018-07-19T07:03:45.502Z,21.40
2018-07-19T07:06:13.713Z,21.60
2018-07-19T07:08:41.953Z,21.80
2018-07-19T07:11:10.165Z,21.90
2018-07-19T07:13:38.429Z,22.20
2018-07-19T07:16:06.658Z,22.60
2018-07-19T07:18:34.861Z,22.90
2018-07-19T07:21:03.131Z,23.10
2018-07-19T07:23:31.340Z,23.20
2018-07-19T07:25:59.605Z,23.50
2018-07-19T07:28:27.851Z,23.90
2018-07-19T07:30:56.097Z,24.10
2018-07-19T07:33:24.317Z,24.00
2018-07-19T07:35:52.530Z,23.60
2018-07-19T07:38:20.969Z,23.70
2018-07-19T07:40:49.509Z,23.80
2018-07-19T07:43:17.694Z,23.80
2018-07-19T07:45:45.906Z,23.80
2018-07-19T07:48:14.177Z,23.80
2018-07-19T07:50:42.392Z,23.70
2018-07-19T07:53:10.697Z,23.40
2018-07-19T07:55:38.946Z,23.50
2018-07-19T07:58:07.132Z,23.70
2018-07-19T08:00:35.626Z,23.90
2018-07-19T08:03:03.874Z,23.90
2018-07-19T08:05:32.153Z,24.10
2018-07-19T08:08:00.349Z,24.20
2018-07-19T08:10:28.550Z,24.10
2018-07-19T08:12:56.694Z,24.10
2018-07-19T08:15:24.916Z,24.10
2018-07-19T08:17:53.111Z,24.10
2018-07-19T08:20:21.914Z,23.90
2018-07-19T08:22:50.130Z,23.90
2018-07-19T08:25:18.514Z,24.10
2018-07-19T08:27:46.737Z,24.10
2018-07-19T08:30:15.045Z,24.10
2018-07-19T08:32:43.240Z,24.10
2018-07-19T08:35:11.434Z,24.10
2018-07-19T08:37:39.647Z,24.20
2018-07-19T08:40:07.886Z,24.40
2018-07-19T08:42:36.139Z,24.60
2018-07-19T08:45:04.739Z,24.60
2018-07-19T08:47:32.967Z,24.60
2018-07-19T08:50:01.143Z,24.80
2018-07-19T08:52:29.423Z,24.70
2018-07-19T08:54:57.615Z,24.90
2018-07-19T08:57:25.803Z,24.80
2018-07-19T08:59:54.105Z,24.90
2018-07-19T09:02:22.455Z,25.00
2018-07-19T09:04:50.683Z,24.90
2018-07-19T09:07:18.886Z,24.90
2018-07-19T09:09:47.102Z,25.30
2018-07-19T09:12:15.403Z,25.60
2018-07-19T09:14:43.843Z,25.80
2018-07-19T09:17:12.123Z,25.90
2018-07-19T09:19:40.357Z,26.00
2018-07-19T09:22:08.554Z,26.20
2018-07-19T09:24:36.823Z,26.40
2018-07-19T09:27:04.999Z,26.40
2018-07-19T09:29:33.190Z,26.20
2018-07-19T09:32:01.439Z,26.50
2018-07-19T09:34:29.703Z,26.50
2018-07-19T09:36:57.957Z,26.60
2018-07-19T09:39:26.168Z,26.90
2018-07-19T09:41:54.473Z,27.20
2018-07-19T09:44:22.635Z,27.60
2018-07-19T09:46:50.791Z,27.60
2018-07-19T09:49:18.979Z,27.60
2018-07-19T09:51:47.152Z,27.80
2018-07-19T09:54:26.763Z,27.90
2018-07-19T09:56:55.035Z,28.00
2018-07-19T09:59:23.387Z,28.50
2018-07-19T10:01:51.564Z,28.70
2018-07-19T10:04:19.787Z,28.70
2018-07-19T10:06:48.035Z,28.80
2018-07-19T10:09:16.288Z,28.50
2018-07-19T10:11:44.584Z,28.50
2018-07-19T10:14:12.790Z,28.80
2018-07-19T10:16:41.028Z,28.70
2018-07-19T10:19:09.220Z,29.00
2018-07-19T10:21:37.415Z,29.00
2018-07-19T10:24:05.584Z,29.30
2018-07-19T10:26:33.833Z,29.60
2018-07-19T10:29:01.961Z,29.80
2018-07-19T10:31:30.116Z,29.90
2018-07-19T10:33:58.700Z,29.80
2018-07-19T10:36:27.027Z,29.90
2018-07-19T10:38:55.217Z,30.10
2018-07-19T10:41:23.476Z,30.00
2018-07-19T10:43:51.660Z,30.10
2018-07-19T10:46:19.952Z,30.00
2018-07-19T10:48:48.175Z,30.00
2018-07-19T10:51:16.367Z,30.10
2018-07-19T10:53:44.569Z,30.30
2018-07-19T10:56:12.803Z,30.10
2018-07-19T10:58:40.984Z,30.10
2018-07-19T11:01:09.393Z,30.10
2018-07-19T11:03:37.568Z,30.60
2018-07-19T11:06:05.785Z,30.90
2018-07-19T11:08:34.042Z,31.20
2018-07-19T11:11:02.244Z,31.00
2018-07-19T11:13:30.437Z,30.40
2018-07-19T11:15:58.617Z,30.10
2018-07-19T11:20:54.820Z,30.10
2018-07-19T11:23:23.469Z,30.50
2018-07-19T11:25:51.693Z,30.80
2018-07-19T11:28:19.943Z,31.10
2018-07-19T11:30:48.089Z,31.00
2018-07-19T11:33:16.305Z,30.40
2018-07-19T11:35:44.514Z,30.60
2018-07-19T11:38:12.684Z,30.40
2018-07-19T11:40:40.898Z,30.40
2018-07-19T11:43:09.106Z,30.20
2018-07-19T11:45:37.285Z,30.00
2018-07-19T11:48:06.073Z,29.80
2018-07-19T11:50:34.346Z,30.10
2018-07-19T11:53:02.545Z,30.20
2018-07-19T11:55:30.834Z,30.10
2018-07-19T11:57:59.486Z,29.80
2018-07-19T12:00:27.677Z,30.20
2018-07-19T12:02:55.937Z,30.30
2018-07-19T12:05:24.141Z,30.90
2018-07-19T12:07:52.366Z,31.10
2018-07-19T12:10:20.554Z,30.80
2018-07-19T12:12:48.781Z,30.60
2018-07-19T12:15:16.983Z,30.20
2018-07-19T12:17:45.317Z,29.80
2018-07-19T12:20:13.656Z,29.70
2018-07-19T12:22:41.994Z,29.50
2018-07-19T12:25:10.195Z,29.20
2018-07-19T12:27:38.429Z,29.40
2018-07-19T12:30:07.142Z,30.00
2018-07-19T12:32:35.334Z,30.60
2018-07-19T12:35:03.506Z,31.20
2018-07-19T12:37:31.710Z,31.10
2018-07-19T12:39:59.922Z,31.30
2018-07-19T12:42:28.098Z,31.30
2018-07-19T12:44:56.313Z,31.20
2018-07-19T12:47:24.506Z,31.00
2018-07-19T12:49:52.694Z,31.00
2018-07-19T12:52:20.882Z,30.60
2018-07-19T12:54:49.055Z,30.80
2018-07-19T12:57:17.303Z,31.10
2018-07-19T12:59:45.493Z,31.20
2018-07-19T13:02:13.807Z,31.50
2018-07-19T13:04:42.047Z,31.40
2018-07-19T13:07:10.263Z,31.20
2018-07-19T13:09:38.518Z,30.80
2018-07-19T13:12:06.700Z,30.80
2018-07-19T13:14:34.898Z,31.40
2018-07-19T13:17:03.159Z,31.40
2018-07-19T13:19:31.390Z,31.40
2018-07-19T13:21:59.611Z,31.20
2018-07-19T13:24:27.811Z,31.10
2018-07-19T13:26:55.994Z,31.40
2018-07-19T13:29:24.199Z,32.00
2018-07-19T13:31:52.439Z,32.00
2018-07-19T13:34:20.635Z,31.90
2018-07-19T13:36:48.851Z,31.90
2018-07-19T13:39:17.051Z,32.00
2018-07-19T13:41:45.335Z,31.80
2018-07-19T13:44:13.501Z,31.60
2018-07-19T13:46:41.711Z,31.80
2018-07-19T13:49:09.923Z,31.80
2018-07-19T13:51:38.287Z,31.80
2018-07-19T13:56:41.263Z,31.60
2018-07-19T13:59:09.585Z,31.40
2018-07-19T14:01:37.927Z,31.10
2018-07-19T14:04:06.328Z,30.60
2018-07-19T14:06:34.512Z,30.00
2018-07-19T14:09:03.130Z,30.00
2018-07-19T14:11:31.329Z,30.30
2018-07-19T14:14:01.585Z,30.80
2018-07-19T14:16:29.792Z,30.80
2018-07-19T14:18:57.977Z,30.90
2018-07-19T14:21:26.156Z,31.10
2018-07-19T14:23:54.484Z,30.60
2018-07-19T14:26:22.730Z,30.70
2018-07-19T14:28:50.893Z,30.70
2018-07-19T14:31:19.065Z,30.80
2018-07-19T14:33:47.241Z,30.80
2018-07-19T14:36:15.417Z,30.70
2018-07-19T14:38:43.609Z,30.70
2018-07-19T14:41:11.861Z,30.70
2018-07-19T14:43:40.104Z,30.50
2018-07-19T14:46:08.401Z,30.30
2018-07-19T14:48:36.605Z,30.50
2018-07-19T14:51:04.801Z,30.60
2018-07-19T14:53:33.025Z,30.50
2018-07-19T14:56:01.217Z,30.60
2018-07-19T14:58:29.412Z,31.00
2018-07-19T15:00:57.617Z,31.10
2018-07-19T15:03:25.769Z,31.10
2018-07-19T15:05:53.981Z,31.40
2018-07-19T15:08:22.193Z,31.70
2018-07-19T15:10:50.369Z,31.30
2018-07-19T15:13:18.590Z,31.20
2018-07-19T15:15:46.789Z,31.10
2018-07-19T15:18:14.956Z,31.20
2018-07-19T15:20:43.112Z,31.30
2018-07-19T15:23:11.380Z,31.00
2018-07-19T15:25:39.757Z,30.70
2018-07-19T15:28:07.941Z,30.40
2018-07-19T15:30:36.264Z,30.40
2018-07-19T15:33:04.463Z,30.30
2018-07-19T15:35:32.697Z,30.10
2018-07-19T15:38:00.989Z,29.80
2018-07-19T15:40:29.170Z,29.60
2018-07-19T15:42:58.361Z,29.70
2018-07-19T15:45:26.534Z,29.60
2018-07-19T15:47:54.722Z,29.30
2018-07-19T15:50:22.976Z,29.40
2018-07-19T15:52:51.117Z,29.60
2018-07-19T15:55:19.416Z,29.70
2018-07-19T15:57:47.546Z,29.80
2018-07-19T16:00:15.736Z,29.80
2018-07-19T16:02:43.914Z,29.70
2018-07-19T16:05:12.177Z,29.60
2018-07-19T16:07:40.371Z,29.80
2018-07-19T16:10:08.666Z,29.80
2018-07-19T16:12:36.850Z,29.90
2018-07-19T16:15:05.459Z,30.00
2018-07-19T16:17:33.638Z,30.00
2018-07-19T16:20:01.822Z,29.70
2018-07-19T16:22:30.011Z,29.60
2018-07-19T16:24:58.395Z,29.50
2018-07-19T16:27:26.594Z,29.60
2018-07-19T16:29:55.151Z,29.60
2018-07-19T16:32:23.400Z,29.50
2018-07-19T16:34:51.542Z,29.20
2018-07-19T16:37:19.739Z,29.00
2018-07-19T16:39:47.923Z,29.00
2018-07-19T16:42:16.187Z,29.30
2018-07-19T16:44:44.370Z,29.40
2018-07-19T16:47:12.551Z,29.20
2018-07-19T16:49:40.747Z,29.40
2018-07-19T16:52:08.927Z,29.50
2018-07-19T16:54:37.136Z,29.70
2018-07-19T16:57:05.944Z,29.80
2018-07-19T16:59:34.215Z,29.80
2018-07-19T17:02:02.385Z,29.80
2018-07-19T17:04:30.628Z,29.80
2018-07-19T17:06:58.823Z,29.60
2018-07-19T17:11:55.012Z,29.50
2018-07-19T17:14:23.179Z,29.30
2018-07-19T17:16:51.431Z,29.50
2018-07-19T17:19:19.604Z,29.50
2018-07-19T17:21:47.791Z,29.50
2018-07-19T17:24:15.982Z,29.40
2018-07-19T17:26:44.148Z,29.30
2018-07-19T17:29:12.360Z,29.30
2018-07-19T17:31:40.555Z,29.30
2018-07-19T17:34:08.754Z,29.30
2018-07-19T17:36:36.947Z,29.30
2018-07-19T17:39:07.776Z,29.30
2018-07-19T17:41:35.963Z,29.20
2018-07-19T17:44:04.163Z,29.10
2018-07-19T17:46:32.335Z,29.10
2018-07-19T17:49:00.568Z,29.10
2018-07-19T17:51:28.746Z,29.00
2018-07-19T17:53:56.895Z,28.90
2018-07-19T17:56:25.080Z,28.90
2018-07-19T17:58:53.271Z,28.80
2018-07-19T18:01:21.439Z,28.70
2018-07-19T18:03:49.627Z,28.70
2018-07-19T18:06:17.864Z,28.70
2018-07-19T18:08:46.020Z,28.60
2018-07-19T18:11:14.187Z,28.60
2018-07-19T18:13:42.344Z,28.50
2018-07-19T18:18:45.187Z,28.40
2018-07-19T18:21:13.344Z,28.40
2018-07-19T18:23:41.500Z,28.40
2018-07-19T18:26:09.700Z,28.40
2018-07-19T18:28:37.932Z,28.40
2018-07-19T18:31:06.437Z,28.40
2018-07-19T18:33:34.617Z,28.40
2018-07-19T18:36:02.865Z,28.40
2018-07-19T18:38:31.182Z,28.40
2018-07-19T18:40:59.365Z,28.30
2018-07-19T18:43:27.630Z,28.20
2018-07-19T18:46:02.568Z,28.10
2018-07-19T18:48:30.756Z,28.10
2018-07-19T18:50:58.988Z,28.00
2018-07-19T18:53:28.040Z,28.00
2018-07-19T19:13:11.861Z,27.60
2018-07-19T19:15:40.069Z,27.30
2018-07-19T19:18:08.237Z,27.20
2018-07-19T19:20:36.413Z,27.00
2018-07-19T19:23:04.609Z,26.90
2018-07-19T19:25:32.794Z,26.90
2018-07-19T19:28:01.000Z,26.90
2018-07-19T19:30:29.193Z,26.80
2018-07-19T19:32:57.389Z,26.70
2018-07-19T19:35:25.573Z,26.60
2018-07-19T19:37:53.758Z,26.60
2018-07-19T19:40:21.957Z,26.50
2018-07-19T19:42:50.113Z,26.40
2018-07-19T19:45:18.321Z,26.30
2018-07-19T19:47:46.482Z,26.20
2018-07-19T19:50:14.654Z,26.10
2018-07-19T19:52:42.882Z,26.00
2018-07-19T19:55:11.069Z,26.00
2018-07-19T19:57:39.257Z,25.90
2018-07-19T20:00:07.430Z,25.80
2018-07-19T20:05:03.562Z,25.80
2018-07-19T20:07:31.742Z,25.70
2018-07-19T20:09:59.990Z,25.70
2018-07-19T20:12:28.145Z,25.60
2018-07-19T20:14:56.362Z,25.60
2018-07-19T20:17:25.786Z,25.50
2018-07-19T20:19:53.953Z,25.40
2018-07-19T20:22:22.158Z,25.40
2018-07-19T20:24:50.302Z,25.40
2018-07-19T20:27:18.617Z,25.40
2018-07-19T20:29:46.822Z,25.40
2018-07-19T20:32:14.998Z,25.40
2018-07-19T20:34:43.175Z,25.30
2018-07-19T20:37:11.413Z,25.00
2018-07-19T20:39:39.694Z,25.00
2018-07-19T20:42:07.906Z,24.80
2018-07-19T20:44:36.094Z,24.70
2018-07-19T20:47:04.282Z,24.70
2018-07-19T20:49:32.543Z,24.70
2018-07-19T20:52:00.814Z,24.70
2018-07-19T20:54:28.979Z,24.70
2018-07-19T21:19:10.983Z,24.60
2018-07-19T21:21:39.159Z,23.70
2018-07-19T21:24:07.348Z,23.70
2018-07-19T21:26:35.532Z,23.70
2018-07-19T21:29:04.007Z,23.70
2018-07-19T21:31:32.195Z,23.60
2018-07-19T21:34:00.365Z,23.50
2018-07-19T21:36:28.557Z,23.50
2018-07-19T21:38:56.783Z,23.50
2018-07-19T21:41:24.956Z,23.40
2018-07-19T21:43:53.160Z,23.40
2018-07-19T21:46:21.330Z,23.30
2018-07-19T21:48:49.481Z,23.30
2018-07-19T21:51:17.953Z,23.40
2018-07-19T21:53:46.174Z,23.30
2018-07-19T21:56:14.342Z,23.30
2018-07-19T21:58:42.492Z,23.30
2018-07-19T22:01:12.237Z,23.30
2018-07-19T22:03:40.621Z,23.20
2018-07-19T22:06:09.501Z,23.10
